Dades meteomassalio
Diari Summary for Gener 5, 2018 Units:  Both    English   Metric
« Previous Day
Next Day »
Diari Semanal Mensual Anual Personalitzat
  Maxima: Minima: Mijana:
Temperatura: TemperatureC °F /  -17.8 °C 1.7 °F /  -16.8 °C 8.8 °F /  -12.9 °C
Rosada: DewpointC °F /  -17.8 °C -4.2 °F /  -20.1 °C 1.6 °F /  -16.9 °C
Humitat: Humidity % 43 % 62 %
Velocitat del vent: WindSpeedKMH mph /  0 km/h - 8.9 mph /  14.3 km/h
Racha vent: WindSpeedGustKMH mph /  0 km/h - -
Vent:- - WNW
Pressio: PressurehPa in /  0 hPa 1008.0 in /  34130.9 hPa -
Pluja: 0.0 in /  0 mm    
Historical Graphs
 
 
Tabular Data for Gener 5, 2018
Time Temperature Dew Point Pressure Wind Wind Speed Wind Gust Humidity Rainfall Rate (Hourly) solar Conditions
TemperatureC °F /  -17.8 °C DewpointC °F /  -17.8 °C PressurehPa in /  0 hPa Calm     Humidity % HourlyPrecipMM in /  0 mm SolarRadiationWatts/m^2 W/m2 Conditions
00:02 12.2 °F /  -11 °C 5.2 °F /  -14.9 °C 1020.5 in /  34554.1 hPa WNW 14.8 mph /  23.8 km/h 14.8 mph /  23.8 km/h 62 % 0.0 in /  0 mm 0.0 W/m2 CLR
00:07 12.2 °F /  -11 °C 5.2 °F /  -14.9 °C 1020.5 in /  34554.1 hPa WSW 18.5 mph /  29.8 km/h 18.5 mph /  29.8 km/h 62 % 0.0 in /  0 mm 0.0 W/m2 CLR
00:12 12.2 °F /  -11 °C 5.2 °F /  -14.9 °C 1020.5 in /  34554.1 hPa West 20.4 mph /  32.8 km/h 20.4 mph /  32.8 km/h 62 % 0.0 in /  0 mm 0.0 W/m2 CLR
00:18 12.2 °F /  -11 °C 5.2 °F /  -14.9 °C 1020.5 in /  34554.1 hPa West 13.0 mph /  20.9 km/h 13.0 mph /  20.9 km/h 62 % 0.0 in /  0 mm 0.0 W/m2 CLR
00:19 12.2 °F /  -11 °C 5.4 °F /  -14.8 °C 1020.5 in /  34554.1 hPa WNW 9.3 mph /  15 km/h 9.3 mph /  15 km/h 63 % 0.0 in /  0 mm 0.0 W/m2 CLR
00:24 12.2 °F /  -11 °C 5.4 °F /  -14.8 °C 1020.5 in /  34554.1 hPa West 16.7 mph /  26.9 km/h 16.7 mph /  26.9 km/h 63 % 0.0 in /  0 mm 0.0 W/m2 CLR
00:25 12.2 °F /  -11 °C 5.4 °F /  -14.8 °C 1020.5 in /  34554.1 hPa West 18.5 mph /  29.8 km/h   63 % 0.0 in /  0 mm 0.0 W/m2 CLR
00:28 11.7 °F /  -11.3 °C 4.8 °F /  -15.1 °C 1020.5 in /  34554.1 hPa West 6.4 mph /  10.3 km/h 6.4 mph /  10.3 km/h 63 % 0.0 in /  0 mm 0.0 W/m2 CLR
00:33 11.7 °F /  -11.3 °C 4.8 °F /  -15.1 °C 1020.2 in /  34544 hPa WNW 14.8 mph /  23.8 km/h 14.8 mph /  23.8 km/h 63 % 0.0 in /  0 mm 0.0 W/m2 CLR
00:35 11.7 °F /  -11.3 °C 5.1 °F /  -14.9 °C 1020.5 in /  34554.1 hPa WNW 16.7 mph /  26.9 km/h 16.7 mph /  26.9 km/h 64 % 0.0 in /  0 mm 0.0 W/m2 CLR
00:40 11.1 °F /  -11.6 °C 4.3 °F /  -15.4 °C 1020.2 in /  34544 hPa WNW 20.4 mph /  32.8 km/h 20.4 mph /  32.8 km/h 63 % 0.0 in /  0 mm 0.0 W/m2 CLR
00:41 11.1 °F /  -11.6 °C 4.3 °F /  -15.4 °C 1020.2 in /  34544 hPa NW 18.5 mph /  29.8 km/h 18.5 mph /  29.8 km/h 63 % 0.0 in /  0 mm 0.0 W/m2 CLR
00:46 11.1 °F /  -11.6 °C 4.3 °F /  -15.4 °C 1020.2 in /  34544 hPa WNW 18.5 mph /  29.8 km/h 18.5 mph /  29.8 km/h 63 % 0.0 in /  0 mm 0.0 W/m2 CLR
00:47 11.1 °F /  -11.6 °C 4.3 °F /  -15.4 °C 1020.2 in /  34544 hPa WNW 18.5 mph /  29.8 km/h 18.5 mph /  29.8 km/h 63 % 0.0 in /  0 mm 0.0 W/m2 CLR
00:52 11.7 °F /  -11.3 °C 4.6 °F /  -15.2 °C 1020.2 in /  34544 hPa WNW 18.5 mph /  29.8 km/h 18.5 mph /  29.8 km/h 62 % 0.0 in /  0 mm 0.0 W/m2 CLR
00:54 11.7 °F /  -11.3 °C 4.6 °F /  -15.2 °C 1019.9 in /  34533.8 hPa WNW 9.3 mph /  15 km/h 9.3 mph /  15 km/h 62 % 0.0 in /  0 mm 0.0 W/m2 CLR
00:59 12.2 °F /  -11 °C 5.4 °F /  -14.8 °C 1019.9 in /  34533.8 hPa WNW 11.1 mph /  17.9 km/h 11.1 mph /  17.9 km/h 63 % 0.0 in /  0 mm 0.0 W/m2 CLR
01:04 11.7 °F /  -11.3 °C 4.8 °F /  -15.1 °C 1019.9 in /  34533.8 hPa WNW 13.0 mph /  20.9 km/h 13.0 mph /  20.9 km/h 63 % 0.0 in /  0 mm 0.0 W/m2 CLR
01:07 11.7 °F /  -11.3 °C 4.8 °F /  -15.1 °C 1019.9 in /  34533.8 hPa NW 14.8 mph /  23.8 km/h 14.8 mph /  23.8 km/h 63 % 0.0 in /  0 mm 0.0 W/m2 CLR
01:12 11.1 °F /  -11.6 °C 4.3 °F /  -15.4 °C 1019.9 in /  34533.8 hPa WNW 16.7 mph /  26.9 km/h 16.7 mph /  26.9 km/h 63 % 0.0 in /  0 mm 0.0 W/m2 CLR
01:15 11.1 °F /  -11.6 °C 4.3 °F /  -15.4 °C 1019.9 in /  34533.8 hPa West 12.9 mph /  20.8 km/h 12.9 mph /  20.8 km/h 63 % 0.0 in /  0 mm 0.0 W/m2 CLR
01:20 10.6 °F /  -11.9 °C 3.8 °F /  -15.7 °C 1019.5 in /  34520.3 hPa WNW 16.7 mph /  26.9 km/h 16.7 mph /  26.9 km/h 63 % 0.0 in /  0 mm 0.0 W/m2 CLR
01:25 10.0 °F /  -12.2 °C 3.3 °F /  -15.9 °C 1019.5 in /  34520.3 hPa WNW 14.8 mph /  23.8 km/h 14.8 mph /  23.8 km/h 63 % 0.0 in /  0 mm 0.0 W/m2 CLR
01:26 9.4 °F /  -12.6 °C 2.5 °F /  -16.4 °C 1019.5 in /  34520.3 hPa WNW 8.0 mph /  12.9 km/h 8.0 mph /  12.9 km/h 62 % 0.0 in /  0 mm 0.0 W/m2 CLR
01:29 9.4 °F /  -12.6 °C 2.7 °F /  -16.3 °C 1019.5 in /  34520.3 hPa West 7.4 mph /  11.9 km/h 7.4 mph /  11.9 km/h 63 % 0.0 in /  0 mm 0.0 W/m2 CLR
01:32 8.9 °F /  -12.8 °C 2.2 °F /  -16.6 °C 1019.2 in /  34510.1 hPa West 9.3 mph /  15 km/h 9.3 mph /  15 km/h 63 % 0.0 in /  0 mm 0.0 W/m2 CLR
01:36 8.9 °F /  -12.8 °C 2.2 °F /  -16.6 °C 1019.2 in /  34510.1 hPa WNW 14.8 mph /  23.8 km/h 14.8 mph /  23.8 km/h 63 % 0.0 in /  0 mm 0.0 W/m2 CLR
01:38 8.3 °F /  -13.2 °C 1.7 °F /  -16.8 °C 1019.2 in /  34510.1 hPa West 16.7 mph /  26.9 km/h 16.7 mph /  26.9 km/h 63 % 0.0 in /  0 mm 0.0 W/m2 CLR
01:43 8.3 °F /  -13.2 °C 1.7 °F /  -16.8 °C 1019.2 in /  34510.1 hPa West 14.8 mph /  23.8 km/h 14.8 mph /  23.8 km/h 63 % 0.0 in /  0 mm 0.0 W/m2 CLR
01:44 8.3 °F /  -13.2 °C 1.7 °F /  -16.8 °C 1019.2 in /  34510.1 hPa West 19.3 mph /  31.1 km/h 19.3 mph /  31.1 km/h 63 % 0.0 in /  0 mm 0.0 W/m2 CLR
01:47 7.8 °F /  -13.4 °C 1.2 °F /  -17.1 °C 1019.2 in /  34510.1 hPa West 11.1 mph /  17.9 km/h 11.1 mph /  17.9 km/h 63 % 0.0 in /  0 mm 0.0 W/m2 CLR
01:52 7.8 °F /  -13.4 °C 1.2 °F /  -17.1 °C 1019.2 in /  34510.1 hPa WNW 16.7 mph /  26.9 km/h 16.7 mph /  26.9 km/h 63 % 0.0 in /  0 mm 0.0 W/m2 CLR
01:57 7.8 °F /  -13.4 °C 1.2 °F /  -17.1 °C 1018.8 in /  34496.6 hPa WNW 11.3 mph /  18.2 km/h 11.3 mph /  18.2 km/h 63 % 0.0 in /  0 mm 0.0 W/m2 CLR
02:00 7.8 °F /  -13.4 °C 1.2 °F /  -17.1 °C 1018.8 in /  34496.6 hPa WNW 13.0 mph /  20.9 km/h 13.0 mph /  20.9 km/h 63 % 0.0 in /  0 mm 0.0 W/m2 CLR
02:05 7.2 °F /  -13.8 °C 0.7 °F /  -17.4 °C 1018.8 in /  34496.6 hPa West 11.3 mph /  18.2 km/h 11.3 mph /  18.2 km/h 63 % 0.0 in /  0 mm 0.0 W/m2 CLR
02:10 7.2 °F /  -13.8 °C 0.7 °F /  -17.4 °C 1018.8 in /  34496.6 hPa WNW 16.7 mph /  26.9 km/h 16.7 mph /  26.9 km/h 63 % 0.0 in /  0 mm 0.0 W/m2 CLR
02:11 7.2 °F /  -13.8 °C 0.4 °F /  -17.6 °C 1018.8 in /  34496.6 hPa WNW 14.8 mph /  23.8 km/h 14.8 mph /  23.8 km/h 62 % 0.0 in /  0 mm 0.0 W/m2 CLR
02:16 7.2 °F /  -13.8 °C 0.4 °F /  -17.6 °C 1018.8 in /  34496.6 hPa WNW 14.8 mph /  23.8 km/h 14.8 mph /  23.8 km/h 62 % 0.0 in /  0 mm 0.0 W/m2 CLR
02:18 6.7 °F /  -14.1 °C -0.1 °F /  -17.8 °C 1018.8 in /  34496.6 hPa West 13.0 mph /  20.9 km/h 13.0 mph /  20.9 km/h 62 % 0.0 in /  0 mm 0.0 W/m2 CLR
02:23 6.7 °F /  -14.1 °C 0.1 °F /  -17.7 °C 1018.5 in /  34486.4 hPa West 20.4 mph /  32.8 km/h 20.4 mph /  32.8 km/h 63 % 0.0 in /  0 mm 0.0 W/m2 CLR
02:28 8.3 °F /  -13.2 °C 1.7 °F /  -16.8 °C 1018.5 in /  34486.4 hPa WNW 9.3 mph /  15 km/h 9.3 mph /  15 km/h 63 % 0.0 in /  0 mm 0.0 W/m2 CLR
02:29 8.3 °F /  -13.2 °C 1.7 °F /  -16.8 °C 1018.5 in /  34486.4 hPa WNW 9.3 mph /  15 km/h 9.3 mph /  15 km/h 63 % 0.0 in /  0 mm 0.0 W/m2 CLR
02:34 8.3 °F /  -13.2 °C 1.9 °F /  -16.7 °C 1018.5 in /  34486.4 hPa West 16.1 mph /  25.9 km/h 16.1 mph /  25.9 km/h 64 % 0.0 in /  0 mm 0.0 W/m2 CLR
02:35 8.3 °F /  -13.2 °C 1.9 °F /  -16.7 °C 1018.5 in /  34486.4 hPa WNW 20.4 mph /  32.8 km/h 20.4 mph /  32.8 km/h 64 % 0.0 in /  0 mm 0.0 W/m2 CLR
02:36 8.3 °F /  -13.2 °C 1.9 °F /  -16.7 °C 1018.5 in /  34486.4 hPa WNW 20.4 mph /  32.8 km/h 20.4 mph /  32.8 km/h 64 % 0.0 in /  0 mm 0.0 W/m2 CLR
02:40 9.4 °F /  -12.6 °C 2.9 °F /  -16.2 °C 1018.5 in /  34486.4 hPa West 13.0 mph /  20.9 km/h 13.0 mph /  20.9 km/h 64 % 0.0 in /  0 mm 0.0 W/m2 CLR
02:42 9.4 °F /  -12.6 °C 2.9 °F /  -16.2 °C 1018.5 in /  34486.4 hPa West 14.5 mph /  23.3 km/h 14.5 mph /  23.3 km/h 64 % 0.0 in /  0 mm 0.0 W/m2 CLR
02:45 9.4 °F /  -12.6 °C 2.9 °F /  -16.2 °C 1018.5 in /  34486.4 hPa West 6.4 mph /  10.3 km/h 6.4 mph /  10.3 km/h 64 % 0.0 in /  0 mm 0.0 W/m2 CLR
02:51 9.4 °F /  -12.6 °C 3.2 °F /  -16 °C 1018.2 in /  34476.3 hPa West 9.3 mph /  15 km/h 9.3 mph /  15 km/h 65 % 0.0 in /  0 mm 0.0 W/m2 CLR
02:54 9.4 °F /  -12.6 °C 3.2 °F /  -16 °C 1018.2 in /  34476.3 hPa West 8.0 mph /  12.9 km/h 8.0 mph /  12.9 km/h 65 % 0.0 in /  0 mm 0.0 W/m2 CLR
02:59 10.0 °F /  -12.2 °C 3.7 °F /  -15.7 °C 1018.2 in /  34476.3 hPa West 11.3 mph /  18.2 km/h 11.3 mph /  18.2 km/h 65 % 0.0 in /  0 mm 0.0 W/m2 CLR
03:04 10.6 °F /  -11.9 °C 4.2 °F /  -15.4 °C 1018.2 in /  34476.3 hPa West 5.6 mph /  9 km/h 5.6 mph /  9 km/h 65 % 0.0 in /  0 mm 0.0 W/m2 CLR
03:09 11.1 °F /  -11.6 °C 4.8 °F /  -15.1 °C 1018.2 in /  34476.3 hPa West 7.4 mph /  11.9 km/h 7.4 mph /  11.9 km/h 65 % 0.0 in /  0 mm 0.0 W/m2 CLR
03:13 10.6 °F /  -11.9 °C 4.2 °F /  -15.4 °C 1018.2 in /  34476.3 hPa West 5.6 mph /  9 km/h 5.6 mph /  9 km/h 65 % 0.0 in /  0 mm 0.0 W/m2 CLR
03:15 10.0 °F /  -12.2 °C 3.7 °F /  -15.7 °C 1018.2 in /  34476.3 hPa West 11.3 mph /  18.2 km/h 11.3 mph /  18.2 km/h 65 % 0.0 in /  0 mm 0.0 W/m2 CLR
03:19 9.4 °F /  -12.6 °C 3.2 °F /  -16 °C 1018.2 in /  34476.3 hPa West 5.6 mph /  9 km/h 5.6 mph /  9 km/h 65 % 0.0 in /  0 mm 0.0 W/m2 CLR
03:24 8.3 °F /  -13.2 °C 2.1 °F /  -16.6 °C 1017.8 in /  34462.7 hPa WNW 7.4 mph /  11.9 km/h 7.4 mph /  11.9 km/h 65 % 0.0 in /  0 mm 0.0 W/m2 CLR
03:30 7.8 °F /  -13.4 °C 1.6 °F /  -16.9 °C 1017.8 in /  34462.7 hPa West 8.0 mph /  12.9 km/h 8.0 mph /  12.9 km/h 65 % 0.0 in /  0 mm 0.0 W/m2 CLR
03:32 7.8 °F /  -13.4 °C 1.6 °F /  -16.9 °C 1017.8 in /  34462.7 hPa WNW 11.1 mph /  17.9 km/h 11.1 mph /  17.9 km/h 65 % 0.0 in /  0 mm 0.0 W/m2 CLR
03:36 7.2 °F /  -13.8 °C 1.1 °F /  -17.2 °C 1017.8 in /  34462.7 hPa WNW 9.7 mph /  15.6 km/h 9.7 mph /  15.6 km/h 65 % 0.0 in /  0 mm 0.0 W/m2 CLR
03:38 7.2 °F /  -13.8 °C 0.8 °F /  -17.3 °C 1017.8 in /  34462.7 hPa West 9.3 mph /  15 km/h 9.3 mph /  15 km/h 64 % 0.0 in /  0 mm 0.0 W/m2 CLR
03:43 6.7 °F /  -14.1 °C 0.3 °F /  -17.6 °C 1017.5 in /  34452.6 hPa WNW 11.1 mph /  17.9 km/h 11.1 mph /  17.9 km/h 64 % 0.0 in /  0 mm 0.0 W/m2 CLR
03:49 6.7 °F /  -14.1 °C 0.3 °F /  -17.6 °C 1017.5 in /  34452.6 hPa WNW 18.5 mph /  29.8 km/h 18.5 mph /  29.8 km/h 64 % 0.0 in /  0 mm 0.0 W/m2 CLR
03:54 6.7 °F /  -14.1 °C 0.3 °F /  -17.6 °C 1017.5 in /  34452.6 hPa West 13.0 mph /  20.9 km/h 13.0 mph /  20.9 km/h 64 % 0.0 in /  0 mm 0.0 W/m2 CLR
03:59 6.7 °F /  -14.1 °C 0.6 °F /  -17.4 °C 1017.2 in /  34442.4 hPa WNW 13.0 mph /  20.9 km/h 13.0 mph /  20.9 km/h 65 % 0.0 in /  0 mm 0.0 W/m2 CLR
04:02 6.7 °F /  -14.1 °C 0.6 °F /  -17.4 °C 1017.2 in /  34442.4 hPa WNW 6.4 mph /  10.3 km/h 6.4 mph /  10.3 km/h 65 % 0.0 in /  0 mm 0.0 W/m2 CLR
04:03 6.7 °F /  -14.1 °C 0.6 °F /  -17.4 °C 1017.2 in /  34442.4 hPa WNW 5.6 mph /  9 km/h 8.0 mph /  12.9 km/h 65 % 0.0 in /  0 mm 0.0 W/m2 CLR
04:08 6.7 °F /  -14.1 °C 0.6 °F /  -17.4 °C 1017.2 in /  34442.4 hPa WNW 14.8 mph /  23.8 km/h 14.8 mph /  23.8 km/h 65 % 0.0 in /  0 mm 0.0 W/m2 CLR
04:13 6.7 °F /  -14.1 °C 0.6 °F /  -17.4 °C 1017.2 in /  34442.4 hPa WNW 9.3 mph /  15 km/h 9.3 mph /  15 km/h 65 % 0.0 in /  0 mm 0.0 W/m2 CLR
04:18 6.7 °F /  -14.1 °C 0.6 °F /  -17.4 °C 1016.8 in /  34428.8 hPa West 1.9 mph /  3.1 km/h 1.9 mph /  3.1 km/h 65 % 0.0 in /  0 mm 0.0 W/m2 CLR
04:23 6.7 °F /  -14.1 °C 0.8 °F /  -17.3 °C 1016.8 in /  34428.8 hPa Calm     66 % 0.0 in /  0 mm 0.0 W/m2 CLR
04:24 6.1 °F /  -14.4 °C 0.2 °F /  -17.7 °C 1016.8 in /  34428.8 hPa Calm     66 % 0.0 in /  0 mm 0.0 W/m2 CLR
04:29 6.1 °F /  -14.4 °C 0.2 °F /  -17.7 °C 1016.8 in /  34428.8 hPa West 3.7 mph /  6 km/h 3.7 mph /  6 km/h 66 % 0.0 in /  0 mm 0.0 W/m2 CLR
04:31 6.1 °F /  -14.4 °C 0.2 °F /  -17.7 °C 1016.8 in /  34428.8 hPa Calm     66 % 0.0 in /  0 mm 0.0 W/m2 CLR
04:35 6.1 °F /  -14.4 °C 0.2 °F /  -17.7 °C 1016.8 in /  34428.8 hPa West 1.6 mph /  2.6 km/h 1.6 mph /  2.6 km/h 66 % 0.0 in /  0 mm 0.0 W/m2 CLR
04:36 6.1 °F /  -14.4 °C 0.2 °F /  -17.7 °C 1016.8 in /  34428.8 hPa West 3.7 mph /  6 km/h 3.7 mph /  6 km/h 66 % 0.0 in /  0 mm 0.0 W/m2 CLR
04:41 5.6 °F /  -14.7 °C -0.3 °F /  -17.9 °C 1016.8 in /  34428.8 hPa WNW 6.4 mph /  10.3 km/h 6.4 mph /  10.3 km/h 66 % 0.0 in /  0 mm 0.0 W/m2 CLR
04:43 5.6 °F /  -14.7 °C -0.3 °F /  -17.9 °C 1016.5 in /  34418.7 hPa WNW 7.4 mph /  11.9 km/h 7.4 mph /  11.9 km/h 66 % 0.0 in /  0 mm 0.0 W/m2 CLR
04:48 5.6 °F /  -14.7 °C -0.3 °F /  -17.9 °C 1016.5 in /  34418.7 hPa WNW 7.4 mph /  11.9 km/h 7.4 mph /  11.9 km/h 66 % 0.0 in /  0 mm 0.0 W/m2 CLR
04:49 5.6 °F /  -14.7 °C -0.3 °F /  -17.9 °C 1016.5 in /  34418.7 hPa WNW 9.3 mph /  15 km/h 9.3 mph /  15 km/h 66 % 0.0 in /  0 mm 0.0 W/m2 CLR
04:54 5.0 °F /  -15 °C -1.1 °F /  -18.4 °C 1016.5 in /  34418.7 hPa WNW 9.7 mph /  15.6 km/h 9.7 mph /  15.6 km/h 65 % 0.0 in /  0 mm 0.0 W/m2 CLR
05:00 5.0 °F /  -15 °C -1.1 °F /  -18.4 °C 1016.5 in /  34418.7 hPa WNW 6.4 mph /  10.3 km/h 6.4 mph /  10.3 km/h 65 % 0.0 in /  0 mm 0.0 W/m2 CLR
05:04 5.0 °F /  -15 °C -1.1 °F /  -18.4 °C 1016.5 in /  34418.7 hPa WNW 18.5 mph /  29.8 km/h 18.5 mph /  29.8 km/h 65 % 0.0 in /  0 mm 0.0 W/m2 CLR
05:09 4.4 °F /  -15.3 °C -1.6 °F /  -18.7 °C 1016.1 in /  34405.1 hPa WNW 11.1 mph /  17.9 km/h 11.1 mph /  17.9 km/h 65 % 0.0 in /  0 mm 0.0 W/m2 CLR
05:10 4.4 °F /  -15.3 °C -1.6 °F /  -18.7 °C 1016.1 in /  34405.1 hPa NW 11.1 mph /  17.9 km/h 11.1 mph /  17.9 km/h 65 % 0.0 in /  0 mm 0.0 W/m2 CLR
05:15 4.4 °F /  -15.3 °C -1.6 °F /  -18.7 °C 1016.5 in /  34418.7 hPa WNW 9.7 mph /  15.6 km/h 9.7 mph /  15.6 km/h 65 % 0.0 in /  0 mm 0.0 W/m2 CLR
05:16 4.4 °F /  -15.3 °C -1.6 °F /  -18.7 °C 1016.1 in /  34405.1 hPa WNW 9.3 mph /  15 km/h 9.3 mph /  15 km/h 65 % 0.0 in /  0 mm 0.0 W/m2 CLR
05:20 4.4 °F /  -15.3 °C -1.6 °F /  -18.7 °C 1016.1 in /  34405.1 hPa WNW 14.8 mph /  23.8 km/h 14.8 mph /  23.8 km/h 65 % 0.0 in /  0 mm 0.0 W/m2 CLR
05:25 4.4 °F /  -15.3 °C -1.6 °F /  -18.7 °C 1016.1 in /  34405.1 hPa WNW 14.8 mph /  23.8 km/h 14.8 mph /  23.8 km/h 65 % 0.0 in /  0 mm 0.0 W/m2 CLR
05:30 4.4 °F /  -15.3 °C -1.6 °F /  -18.7 °C 1016.1 in /  34405.1 hPa West 9.3 mph /  15 km/h 9.3 mph /  15 km/h 65 % 0.0 in /  0 mm 0.0 W/m2 CLR
05:35 4.4 °F /  -15.3 °C -1.3 °F /  -18.5 °C 1015.8 in /  34395 hPa WNW 14.8 mph /  23.8 km/h 14.8 mph /  23.8 km/h 66 % 0.0 in /  0 mm 0.0 W/m2 CLR
05:36 4.4 °F /  -15.3 °C -1.3 °F /  -18.5 °C 1016.1 in /  34405.1 hPa West 5.6 mph /  9 km/h 5.6 mph /  9 km/h 66 % 0.0 in /  0 mm 0.0 W/m2 CLR
05:41 4.4 °F /  -15.3 °C -1.3 °F /  -18.5 °C 1015.8 in /  34395 hPa WNW 11.1 mph /  17.9 km/h 11.1 mph /  17.9 km/h 66 % 0.0 in /  0 mm 0.0 W/m2 CLR
05:42 4.4 °F /  -15.3 °C -1.3 °F /  -18.5 °C 1016.1 in /  34405.1 hPa West 11.1 mph /  17.9 km/h 11.1 mph /  17.9 km/h 66 % 0.0 in /  0 mm 0.0 W/m2 CLR
05:43 4.4 °F /  -15.3 °C -1.3 °F /  -18.5 °C 1016.1 in /  34405.1 hPa WNW 5.6 mph /  9 km/h 5.6 mph /  9 km/h 66 % 0.0 in /  0 mm 0.0 W/m2 CLR
05:48 3.9 °F /  -15.6 °C -1.9 °F /  -18.8 °C 1015.8 in /  34395 hPa West 3.7 mph /  6 km/h   66 % 0.0 in /  0 mm 0.0 W/m2 CLR
05:50 3.9 °F /  -15.6 °C -1.9 °F /  -18.8 °C 1015.8 in /  34395 hPa WNW 1.9 mph /  3.1 km/h   66 % 0.0 in /  0 mm 0.0 W/m2 CLR
05:54 3.9 °F /  -15.6 °C -1.9 °F /  -18.8 °C 1015.8 in /  34395 hPa Calm     66 % 0.0 in /  0 mm 0.0 W/m2 CLR
05:59 3.9 °F /  -15.6 °C -1.7 °F /  -18.7 °C 1015.8 in /  34395 hPa Calm     67 % 0.0 in /  0 mm 0.0 W/m2 CLR
06:00 3.9 °F /  -15.6 °C -1.7 °F /  -18.7 °C 1015.8 in /  34395 hPa Calm     67 % 0.0 in /  0 mm 0.0 W/m2 CLR
06:05 3.3 °F /  -15.9 °C -2.2 °F /  -19 °C 1015.8 in /  34395 hPa Calm     67 % 0.0 in /  0 mm 0.0 W/m2 CLR
06:10 3.3 °F /  -15.9 °C -1.8 °F /  -18.8 °C 1015.8 in /  34395 hPa Calm     69 % 0.0 in /  0 mm 0.0 W/m2 CLR
06:15 3.3 °F /  -15.9 °C -1.8 °F /  -18.8 °C 1015.8 in /  34395 hPa Calm     69 % 0.0 in /  0 mm 0.0 W/m2 CLR
06:19 2.8 °F /  -16.2 °C -2.2 °F /  -19 °C 1015.8 in /  34395 hPa Calm     70 % 0.0 in /  0 mm 0.0 W/m2 CLR
06:24 2.8 °F /  -16.2 °C -1.9 °F /  -18.8 °C 1015.8 in /  34395 hPa Calm     71 % 0.0 in /  0 mm 0.0 W/m2 CLR
06:28 2.8 °F /  -16.2 °C -1.8 °F /  -18.8 °C 1015.8 in /  34395 hPa Calm     72 % 0.0 in /  0 mm 0.0 W/m2 CLR
06:33 2.8 °F /  -16.2 °C -1.4 °F /  -18.6 °C 1015.8 in /  34395 hPa Calm     74 % 0.0 in /  0 mm 0.0 W/m2 CLR
06:37 2.8 °F /  -16.2 °C -1.4 °F /  -18.6 °C 1015.8 in /  34395 hPa Calm     74 % 0.0 in /  0 mm 0.0 W/m2 CLR
06:42 2.8 °F /  -16.2 °C -1.2 °F /  -18.4 °C 1015.8 in /  34395 hPa West 5.6 mph /  9 km/h 5.6 mph /  9 km/h 75 % 0.0 in /  0 mm 0.0 W/m2 CLR
06:45 2.2 °F /  -16.6 °C -1.8 °F /  -18.8 °C 1015.5 in /  34384.8 hPa West 5.6 mph /  9 km/h 5.8 mph /  9.3 km/h 75 % 0.0 in /  0 mm 0.0 W/m2 CLR
06:50 2.2 °F /  -16.6 °C -1.4 °F /  -18.6 °C 1015.5 in /  34384.8 hPa WNW 6.4 mph /  10.3 km/h 6.4 mph /  10.3 km/h 77 % 0.0 in /  0 mm 0.0 W/m2 CLR
06:55 2.2 °F /  -16.6 °C -1.8 °F /  -18.8 °C 1015.8 in /  34395 hPa West 5.6 mph /  9 km/h 5.6 mph /  9 km/h 75 % 0.0 in /  0 mm 0.0 W/m2 CLR
06:57 2.2 °F /  -16.6 °C -2.1 °F /  -18.9 °C 1015.8 in /  34395 hPa West 1.9 mph /  3.1 km/h   73 % 0.0 in /  0 mm 0.0 W/m2 CLR
07:02 2.2 °F /  -16.6 °C -2.3 °F /  -19.1 °C 1015.8 in /  34395 hPa Calm     72 % 0.0 in /  0 mm 0.0 W/m2 CLR
07:03 2.2 °F /  -16.6 °C -2.5 °F /  -19.2 °C 1015.8 in /  34395 hPa Calm     71 % 0.0 in /  0 mm 0.0 W/m2 CLR
07:07 1.7 °F /  -16.8 °C -2.8 °F /  -19.3 °C 1015.8 in /  34395 hPa Calm     72 % 0.0 in /  0 mm 0.0 W/m2 CLR
07:09 2.2 °F /  -16.6 °C -2.1 °F /  -18.9 °C 1015.8 in /  34395 hPa Calm     73 % 0.0 in /  0 mm 0.0 W/m2 CLR
07:12 2.2 °F /  -16.6 °C -1.9 °F /  -18.8 °C 1015.8 in /  34395 hPa Calm     74 % 0.0 in /  0 mm 0.0 W/m2 CLR
07:17 2.2 °F /  -16.6 °C -1.6 °F /  -18.7 °C 1015.5 in /  34384.8 hPa Calm     76 % 0.0 in /  0 mm 0.0 W/m2 CLR
07:18 2.2 °F /  -16.6 °C -1.8 °F /  -18.8 °C 1015.5 in /  34384.8 hPa Calm     75 % 0.0 in /  0 mm 0.0 W/m2 CLR
07:23 2.2 °F /  -16.6 °C -1.8 °F /  -18.8 °C 1015.5 in /  34384.8 hPa Calm     75 % 0.0 in /  0 mm 0.0 W/m2 CLR
07:25 2.2 °F /  -16.6 °C -1.6 °F /  -18.7 °C 1015.5 in /  34384.8 hPa Calm     76 % 0.0 in /  0 mm 0.0 W/m2 CLR
07:30 2.2 °F /  -16.6 °C -1.4 °F /  -18.6 °C 1015.5 in /  34384.8 hPa Calm     77 % 0.0 in /  0 mm 0.0 W/m2 CLR
07:31 2.2 °F /  -16.6 °C -1.4 °F /  -18.6 °C 1015.5 in /  34384.8 hPa Calm     77 % 0.0 in /  0 mm 0.0 W/m2 CLR
07:36 1.7 °F /  -16.8 °C -1.6 °F /  -18.7 °C 1015.5 in /  34384.8 hPa Calm     79 % 0.0 in /  0 mm 0.0 W/m2 CLR
07:38 1.7 °F /  -16.8 °C -1.6 °F /  -18.7 °C 1015.5 in /  34384.8 hPa West 1.6 mph /  2.6 km/h 1.6 mph /  2.6 km/h 79 % 0.0 in /  0 mm 0.0 W/m2 CLR
07:44 2.2 °F /  -16.6 °C -0.9 °F /  -18.3 °C 1015.5 in /  34384.8 hPa Calm     80 % 0.0 in /  0 mm 0.0 W/m2 CLR
07:47 2.2 °F /  -16.6 °C -0.9 °F /  -18.3 °C 1015.5 in /  34384.8 hPa Calm     80 % 0.0 in /  0 mm 0.0 W/m2 CLR
07:52 2.2 °F /  -16.6 °C -0.9 °F /  -18.3 °C 1015.8 in /  34395 hPa West 8.0 mph /  12.9 km/h 8.0 mph /  12.9 km/h 80 % 0.0 in /  0 mm 0.0 W/m2 CLR
07:57 1.7 °F /  -16.8 °C -1.2 °F /  -18.4 °C 1015.8 in /  34395 hPa West 5.6 mph /  9 km/h 5.6 mph /  9 km/h 81 % 0.0 in /  0 mm 0.0 W/m2 CLR
07:59 1.7 °F /  -16.8 °C -1.2 °F /  -18.4 °C 1015.8 in /  34395 hPa West 7.4 mph /  11.9 km/h   81 % 0.0 in /  0 mm 0.0 W/m2 CLR
08:04 1.7 °F /  -16.8 °C -1.2 °F /  -18.4 °C 1015.8 in /  34395 hPa Calm     81 % 0.0 in /  0 mm 0.0 W/m2 CLR
08:07 1.7 °F /  -16.8 °C -1.2 °F /  -18.4 °C 1015.8 in /  34395 hPa Calm     81 % 0.0 in /  0 mm 0.0 W/m2 CLR
08:10 1.7 °F /  -16.8 °C -1.2 °F /  -18.4 °C 1015.8 in /  34395 hPa Calm     81 % 0.0 in /  0 mm 0.0 W/m2 CLR
08:12 1.7 °F /  -16.8 °C -1.6 °F /  -18.7 °C 1015.8 in /  34395 hPa Calm     79 % 0.0 in /  0 mm 0.0 W/m2 CLR
08:18 1.7 °F /  -16.8 °C -1.4 °F /  -18.6 °C 1015.8 in /  34395 hPa Calm     80 % 0.0 in /  0 mm 0.0 W/m2 OVC
08:23 1.7 °F /  -16.8 °C -1.2 °F /  -18.4 °C 1015.8 in /  34395 hPa Calm     81 % 0.0 in /  0 mm 5.0 W/m2 OVC
08:26 1.7 °F /  -16.8 °C -1.4 °F /  -18.6 °C 1015.8 in /  34395 hPa Calm     80 % 0.0 in /  0 mm 5.0 W/m2 OVC
08:31 1.7 °F /  -16.8 °C -1.2 °F /  -18.4 °C 1015.8 in /  34395 hPa Calm     81 % 0.0 in /  0 mm 7.0 W/m2 BKN
08:36 2.2 °F /  -16.6 °C -0.7 °F /  -18.2 °C 1016.1 in /  34405.1 hPa Calm     81 % 0.0 in /  0 mm 9.0 W/m2 BKN
08:37 2.2 °F /  -16.6 °C -0.7 °F /  -18.2 °C 1016.1 in /  34405.1 hPa Calm     81 % 0.0 in /  0 mm 11.0 W/m2 BKN
08:42 2.2 °F /  -16.6 °C -0.6 °F /  -18.1 °C 1016.1 in /  34405.1 hPa Calm     82 % 0.0 in /  0 mm 12.0 W/m2 BKN
08:44 1.7 °F /  -16.8 °C -1.1 °F /  -18.4 °C 1016.1 in /  34405.1 hPa West 7.4 mph /  11.9 km/h 7.4 mph /  11.9 km/h 82 % 0.0 in /  0 mm 12.0 W/m2 BKN
08:49 1.7 °F /  -16.8 °C -0.9 °F /  -18.3 °C 1016.1 in /  34405.1 hPa Calm     83 % 0.0 in /  0 mm 14.0 W/m2 BKN
08:55 1.7 °F /  -16.8 °C -1.1 °F /  -18.4 °C 1016.1 in /  34405.1 hPa Calm     82 % 0.0 in /  0 mm 18.0 W/m2 BKN
09:00 1.7 °F /  -16.8 °C -1.2 °F /  -18.4 °C 1016.1 in /  34405.1 hPa Calm     81 % 0.0 in /  0 mm 25.0 W/m2 BKN
09:02 1.7 °F /  -16.8 °C -1.2 °F /  -18.4 °C 1016.1 in /  34405.1 hPa Calm     81 % 0.0 in /  0 mm 32.0 W/m2 BKN
09:07 1.7 °F /  -16.8 °C -1.2 °F /  -18.4 °C 1016.1 in /  34405.1 hPa NW 9.3 mph /  15 km/h 9.3 mph /  15 km/h 81 % 0.0 in /  0 mm 37.0 W/m2 BKN
09:11 1.7 °F /  -16.8 °C -3.1 °F /  -19.5 °C 1016.1 in /  34405.1 hPa NW 17.7 mph /  28.5 km/h 17.7 mph /  28.5 km/h 71 % 0.0 in /  0 mm 49.0 W/m2 SCT
09:16 1.7 °F /  -16.8 °C -4.0 °F /  -20 °C 1016.1 in /  34405.1 hPa NW 22.5 mph /  36.2 km/h 22.5 mph /  36.2 km/h 66 % 0.0 in /  0 mm 58.0 W/m2 SCT
09:17 1.7 °F /  -16.8 °C -4.2 °F /  -20.1 °C 1016.1 in /  34405.1 hPa NNW 24.1 mph /  38.8 km/h 24.1 mph /  38.8 km/h 65 % 0.0 in /  0 mm 60.0 W/m2 SCT
09:22 2.2 °F /  -16.6 °C -3.9 °F /  -19.9 °C 1016.1 in /  34405.1 hPa NNW 22.2 mph /  35.7 km/h 22.2 mph /  35.7 km/h 64 % 0.0 in /  0 mm 63.0 W/m2 SCT
09:26 2.8 °F /  -16.2 °C -3.4 °F /  -19.7 °C 1016.1 in /  34405.1 hPa North 18.5 mph /  29.8 km/h 18.5 mph /  29.8 km/h 64 % 0.0 in /  0 mm 84.0 W/m2 SCT
09:30 6.7 °F /  -14.1 °C 0.3 °F /  -17.6 °C 1016.1 in /  34405.1 hPa NW 19.3 mph /  31.1 km/h 19.3 mph /  31.1 km/h 64 % 0.0 in /  0 mm 97.0 W/m2 FEW
09:31 6.7 °F /  -14.1 °C 0.3 °F /  -17.6 °C 1016.1 in /  34405.1 hPa NNW 22.2 mph /  35.7 km/h 22.2 mph /  35.7 km/h 64 % 0.0 in /  0 mm 97.0 W/m2 FEW
09:36 8.9 °F /  -12.8 °C 2.4 °F /  -16.4 °C 1015.8 in /  34395 hPa North 18.5 mph /  29.8 km/h 18.5 mph /  29.8 km/h 64 % 0.0 in /  0 mm 90.0 W/m2 CLR
09:38 9.4 °F /  -12.6 °C 2.7 °F /  -16.3 °C 1015.8 in /  34395 hPa North 24.1 mph /  38.8 km/h 24.1 mph /  38.8 km/h 63 % 0.0 in /  0 mm 118.0 W/m2 CLR
09:44 11.1 °F /  -11.6 °C 4.3 °F /  -15.4 °C 1015.8 in /  34395 hPa North 27.8 mph /  44.7 km/h 27.8 mph /  44.7 km/h 63 % 0.0 in /  0 mm 132.0 W/m2 CLR
09:49 11.7 °F /  -11.3 °C 4.4 °F /  -15.3 °C 1015.8 in /  34395 hPa NNW 33.3 mph /  53.6 km/h 33.3 mph /  53.6 km/h 61 % 0.0 in /  0 mm 148.0 W/m2 CLR
09:54 11.7 °F /  -11.3 °C 4.4 °F /  -15.3 °C 1015.8 in /  34395 hPa NNW 31.5 mph /  50.7 km/h 31.5 mph /  50.7 km/h 61 % 0.0 in /  0 mm 162.0 W/m2 CLR
09:56 12.2 °F /  -11 °C 4.7 °F /  -15.2 °C 1015.8 in /  34395 hPa NNW 38.6 mph /  62.1 km/h 38.6 mph /  62.1 km/h 60 % 0.0 in /  0 mm 169.0 W/m2 CLR
09:59 12.2 °F /  -11 °C 4.7 °F /  -15.2 °C 1015.8 in /  34395 hPa NNW 37.0 mph /  59.5 km/h 37.0 mph /  59.5 km/h 60 % 0.0 in /  0 mm 179.0 W/m2 CLR
10:02 12.8 °F /  -10.7 °C 4.9 °F /  -15.1 °C 1015.8 in /  34395 hPa NNW 37.0 mph /  59.5 km/h 37.0 mph /  59.5 km/h 59 % 0.0 in /  0 mm 188.0 W/m2 CLR
10:05 12.8 °F /  -10.7 °C 4.9 °F /  -15.1 °C 1015.8 in /  34395 hPa North 35.2 mph /  56.6 km/h 35.2 mph /  56.6 km/h 59 % 0.0 in /  0 mm 151.0 W/m2 CLR
10:09 12.8 °F /  -10.7 °C 4.9 °F /  -15.1 °C 1015.5 in /  34384.8 hPa North 35.2 mph /  56.6 km/h 35.2 mph /  56.6 km/h 59 % 0.0 in /  0 mm 134.0 W/m2 CLR
10:10 12.8 °F /  -10.7 °C 4.9 °F /  -15.1 °C 1015.8 in /  34395 hPa North 37.0 mph /  59.5 km/h 37.0 mph /  59.5 km/h 59 % 0.0 in /  0 mm 167.0 W/m2 CLR
10:15 12.8 °F /  -10.7 °C 4.7 °F /  -15.2 °C 1015.5 in /  34384.8 hPa North 29.6 mph /  47.6 km/h 29.6 mph /  47.6 km/h 58 % 0.0 in /  0 mm 185.0 W/m2 CLR
10:20 13.3 °F /  -10.4 °C 5.2 °F /  -14.9 °C 1015.5 in /  34384.8 hPa North 25.9 mph /  41.7 km/h 25.9 mph /  41.7 km/h 58 % 0.0 in /  0 mm 185.0 W/m2 CLR
10:21 13.3 °F /  -10.4 °C 5.2 °F /  -14.9 °C 1015.5 in /  34384.8 hPa NNW 25.9 mph /  41.7 km/h 25.9 mph /  41.7 km/h 58 % 0.0 in /  0 mm 185.0 W/m2 CLR
10:23 13.3 °F /  -10.4 °C 5.2 °F /  -14.9 °C 1015.5 in /  34384.8 hPa NNW 25.9 mph /  41.7 km/h 25.9 mph /  41.7 km/h 58 % 0.0 in /  0 mm 243.0 W/m2 CLR
10:27 13.3 °F /  -10.4 °C 5.0 °F /  -15 °C 1015.5 in /  34384.8 hPa NNW 27.8 mph /  44.7 km/h 27.8 mph /  44.7 km/h 57 % 0.0 in /  0 mm 251.0 W/m2 CLR
10:32 13.3 °F /  -10.4 °C 5.0 °F /  -15 °C 1015.5 in /  34384.8 hPa North 25.9 mph /  41.7 km/h 25.9 mph /  41.7 km/h 57 % 0.0 in /  0 mm 265.0 W/m2 CLR
10:37 13.3 °F /  -10.4 °C 5.0 °F /  -15 °C 1015.5 in /  34384.8 hPa NW 18.5 mph /  29.8 km/h 18.5 mph /  29.8 km/h 57 % 0.0 in /  0 mm 276.0 W/m2 CLR
10:42 13.3 °F /  -10.4 °C 4.7 °F /  -15.2 °C 1015.5 in /  34384.8 hPa NW 19.3 mph /  31.1 km/h 19.3 mph /  31.1 km/h 56 % 0.0 in /  0 mm 285.0 W/m2 CLR
10:47 13.3 °F /  -10.4 °C 4.5 °F /  -15.3 °C 1015.5 in /  34384.8 hPa North 16.1 mph /  25.9 km/h 16.1 mph /  25.9 km/h 55 % 0.0 in /  0 mm 295.0 W/m2 CLR
10:50 13.9 °F /  -10.1 °C 5.0 °F /  -15 °C 1015.5 in /  34384.8 hPa North 16.7 mph /  26.9 km/h 16.7 mph /  26.9 km/h 55 % 0.0 in /  0 mm 301.0 W/m2 CLR
10:52 13.9 °F /  -10.1 °C 5.0 °F /  -15 °C 1015.5 in /  34384.8 hPa NW 24.1 mph /  38.8 km/h 24.1 mph /  38.8 km/h 55 % 0.0 in /  0 mm 306.0 W/m2 CLR
10:57 13.9 °F /  -10.1 °C 4.7 °F /  -15.2 °C 1015.5 in /  34384.8 hPa NW 18.5 mph /  29.8 km/h 18.5 mph /  29.8 km/h 54 % 0.0 in /  0 mm 313.0 W/m2 CLR
11:02 13.9 °F /  -10.1 °C 4.7 °F /  -15.2 °C 1015.5 in /  34384.8 hPa NW 22.2 mph /  35.7 km/h 22.2 mph /  35.7 km/h 54 % 0.0 in /  0 mm 325.0 W/m2 CLR
11:03 14.4 °F /  -9.8 °C 5.2 °F /  -14.9 °C 1015.1 in /  34371.3 hPa NW 31.5 mph /  50.7 km/h 31.5 mph /  50.7 km/h 54 % 0.0 in /  0 mm 327.0 W/m2 CLR
11:08 14.4 °F /  -9.8 °C 5.0 °F /  -15 °C 1015.1 in /  34371.3 hPa NW 22.2 mph /  35.7 km/h 22.2 mph /  35.7 km/h 53 % 0.0 in /  0 mm 336.0 W/m2 CLR
11:10 14.4 °F /  -9.8 °C 5.0 °F /  -15 °C 1015.1 in /  34371.3 hPa North 27.8 mph /  44.7 km/h 27.8 mph /  44.7 km/h 53 % 0.0 in /  0 mm 339.0 W/m2 CLR
11:14 14.4 °F /  -9.8 °C 5.0 °F /  -15 °C 1015.1 in /  34371.3 hPa North 31.5 mph /  50.7 km/h 31.5 mph /  50.7 km/h 53 % 0.0 in /  0 mm 345.0 W/m2 CLR
11:15 14.4 °F /  -9.8 °C 5.0 °F /  -15 °C 1015.1 in /  34371.3 hPa NNW 29.6 mph /  47.6 km/h 29.6 mph /  47.6 km/h 53 % 0.0 in /  0 mm 348.0 W/m2 CLR
11:20 15.0 °F /  -9.4 °C 5.2 °F /  -14.9 °C 1015.1 in /  34371.3 hPa NW 31.5 mph /  50.7 km/h 31.5 mph /  50.7 km/h 52 % 0.0 in /  0 mm 355.0 W/m2 CLR
11:25 15.0 °F /  -9.4 °C 5.2 °F /  -14.9 °C 1015.1 in /  34371.3 hPa NNW 25.9 mph /  41.7 km/h 25.9 mph /  41.7 km/h 52 % 0.0 in /  0 mm 364.0 W/m2 CLR
11:26 15.0 °F /  -9.4 °C 5.2 °F /  -14.9 °C 1015.1 in /  34371.3 hPa NNW 25.9 mph /  41.7 km/h 25.9 mph /  41.7 km/h 52 % 0.0 in /  0 mm 364.0 W/m2 CLR
11:31 15.0 °F /  -9.4 °C 5.2 °F /  -14.9 °C 1015.1 in /  34371.3 hPa North 24.1 mph /  38.8 km/h 24.1 mph /  38.8 km/h 52 % 0.0 in /  0 mm 371.0 W/m2 CLR
11:36 15.0 °F /  -9.4 °C 5.2 °F /  -14.9 °C 1014.8 in /  34361.1 hPa NW 16.7 mph /  26.9 km/h 16.7 mph /  26.9 km/h 52 % 0.0 in /  0 mm 378.0 W/m2 CLR
11:37 15.0 °F /  -9.4 °C 5.2 °F /  -14.9 °C 1014.8 in /  34361.1 hPa NW 16.7 mph /  26.9 km/h 16.7 mph /  26.9 km/h 52 % 0.0 in /  0 mm 378.0 W/m2 CLR
11:38 15.0 °F /  -9.4 °C 4.9 °F /  -15.1 °C 1014.8 in /  34361.1 hPa WNW 14.8 mph /  23.8 km/h 14.8 mph /  23.8 km/h 51 % 0.0 in /  0 mm 380.0 W/m2 CLR
11:42 15.0 °F /  -9.4 °C 4.9 °F /  -15.1 °C 1014.8 in /  34361.1 hPa North 18.5 mph /  29.8 km/h 18.5 mph /  29.8 km/h 51 % 0.0 in /  0 mm 385.0 W/m2 CLR
11:44 15.0 °F /  -9.4 °C 4.9 °F /  -15.1 °C 1014.8 in /  34361.1 hPa NNW 22.2 mph /  35.7 km/h 22.2 mph /  35.7 km/h 51 % 0.0 in /  0 mm 387.0 W/m2 CLR
11:48 15.0 °F /  -9.4 °C 4.9 °F /  -15.1 °C 1014.4 in /  34347.6 hPa NNW 31.5 mph /  50.7 km/h 31.5 mph /  50.7 km/h 51 % 0.0 in /  0 mm 396.0 W/m2 CLR
11:53 15.6 °F /  -9.1 °C 5.4 °F /  -14.8 °C 1014.4 in /  34347.6 hPa NW 24.1 mph /  38.8 km/h 24.1 mph /  38.8 km/h 51 % 0.0 in /  0 mm 401.0 W/m2 CLR
11:54 15.6 °F /  -9.1 °C 5.2 °F /  -14.9 °C 1014.4 in /  34347.6 hPa NW 22.2 mph /  35.7 km/h 22.2 mph /  35.7 km/h 50 % 0.0 in /  0 mm 403.0 W/m2 CLR
11:59 15.6 °F /  -9.1 °C 5.2 °F /  -14.9 °C 1014.4 in /  34347.6 hPa NNW 27.8 mph /  44.7 km/h 27.8 mph /  44.7 km/h 50 % 0.0 in /  0 mm 406.0 W/m2 CLR
12:02 15.6 °F /  -9.1 °C 5.2 °F /  -14.9 °C 1014.4 in /  34347.6 hPa WNW 18.5 mph /  29.8 km/h 18.5 mph /  29.8 km/h 50 % 0.0 in /  0 mm 410.0 W/m2 CLR
12:07 15.6 °F /  -9.1 °C 5.2 °F /  -14.9 °C 1014.1 in /  34337.4 hPa North 18.5 mph /  29.8 km/h 18.5 mph /  29.8 km/h 50 % 0.0 in /  0 mm 417.0 W/m2 CLR
12:08 15.6 °F /  -9.1 °C 5.2 °F /  -14.9 °C 1014.1 in /  34337.4 hPa NW 22.2 mph /  35.7 km/h 22.2 mph /  35.7 km/h 50 % 0.0 in /  0 mm 417.0 W/m2 CLR
12:13 15.6 °F /  -9.1 °C 5.2 °F /  -14.9 °C 1014.1 in /  34337.4 hPa NW 18.5 mph /  29.8 km/h 18.5 mph /  29.8 km/h 50 % 0.0 in /  0 mm 422.0 W/m2 CLR
12:14 15.6 °F /  -9.1 °C 5.2 °F /  -14.9 °C 1014.1 in /  34337.4 hPa WNW 20.9 mph /  33.6 km/h 20.9 mph /  33.6 km/h 50 % 0.0 in /  0 mm 422.0 W/m2 CLR
12:19 15.6 °F /  -9.1 °C 4.9 °F /  -15.1 °C 1014.1 in /  34337.4 hPa NW 13.0 mph /  20.9 km/h 13.0 mph /  20.9 km/h 49 % 0.0 in /  0 mm 427.0 W/m2 CLR
12:21 15.6 °F /  -9.1 °C 4.9 °F /  -15.1 °C 1013.8 in /  34327.3 hPa NW 17.7 mph /  28.5 km/h 17.7 mph /  28.5 km/h 49 % 0.0 in /  0 mm 427.0 W/m2 CLR
12:24 15.6 °F /  -9.1 °C 4.9 °F /  -15.1 °C 1013.8 in /  34327.3 hPa NW 18.5 mph /  29.8 km/h 18.5 mph /  29.8 km/h 49 % 0.0 in /  0 mm 434.0 W/m2 CLR
12:29 15.6 °F /  -9.1 °C 4.9 °F /  -15.1 °C 1013.8 in /  34327.3 hPa NNW 16.7 mph /  26.9 km/h 16.7 mph /  26.9 km/h 49 % 0.0 in /  0 mm 446.0 W/m2 CLR
12:30 15.6 °F /  -9.1 °C 4.9 °F /  -15.1 °C 1013.8 in /  34327.3 hPa NNW 14.8 mph /  23.8 km/h 14.8 mph /  23.8 km/h 49 % 0.0 in /  0 mm 448.0 W/m2 CLR
12:35 15.6 °F /  -9.1 °C 4.6 °F /  -15.2 °C 1013.4 in /  34313.7 hPa WNW 20.4 mph /  32.8 km/h 20.4 mph /  32.8 km/h 48 % 0.0 in /  0 mm 446.0 W/m2 CLR
12:36 15.6 °F /  -9.1 °C 4.6 °F /  -15.2 °C 1013.4 in /  34313.7 hPa NW 22.2 mph /  35.7 km/h 22.2 mph /  35.7 km/h 48 % 0.0 in /  0 mm 446.0 W/m2 CLR
12:42 15.6 °F /  -9.1 °C 4.6 °F /  -15.2 °C 1013.4 in /  34313.7 hPa West 24.1 mph /  38.8 km/h 24.1 mph /  38.8 km/h 48 % 0.0 in /  0 mm 468.0 W/m2 CLR
12:48 15.6 °F /  -9.1 °C 4.6 °F /  -15.2 °C 1013.4 in /  34313.7 hPa WNW 25.9 mph /  41.7 km/h 25.9 mph /  41.7 km/h 48 % 0.0 in /  0 mm 519.0 W/m2 CLR
12:50 15.6 °F /  -9.1 °C 4.6 °F /  -15.2 °C 1013.4 in /  34313.7 hPa WNW 24.1 mph /  38.8 km/h 24.1 mph /  38.8 km/h 48 % 0.0 in /  0 mm 527.0 W/m2 CLR
12:53 16.1 °F /  -8.8 °C 5.1 °F /  -14.9 °C 1013.1 in /  34303.6 hPa NW 18.5 mph /  29.8 km/h 18.5 mph /  29.8 km/h 48 % 0.0 in /  0 mm 552.0 W/m2 CLR
12:58 16.1 °F /  -8.8 °C 4.8 °F /  -15.1 °C 1013.1 in /  34303.6 hPa WNW 16.1 mph /  25.9 km/h 16.1 mph /  25.9 km/h 47 % 0.0 in /  0 mm 192.0 W/m2 CLR
13:03 16.1 °F /  -8.8 °C 5.1 °F /  -14.9 °C 1013.1 in /  34303.6 hPa NW 18.5 mph /  29.8 km/h 18.5 mph /  29.8 km/h 48 % 0.0 in /  0 mm 192.0 W/m2 CLR
13:07 16.1 °F /  -8.8 °C 5.1 °F /  -14.9 °C 1012.8 in /  34293.4 hPa NW 18.5 mph /  29.8 km/h 18.5 mph /  29.8 km/h 48 % 0.0 in /  0 mm 506.0 W/m2 CLR
13:12 16.1 °F /  -8.8 °C 4.8 °F /  -15.1 °C 1012.8 in /  34293.4 hPa NW 22.2 mph /  35.7 km/h 22.2 mph /  35.7 km/h 47 % 0.0 in /  0 mm 125.0 W/m2 CLR
13:13 16.1 °F /  -8.8 °C 5.1 °F /  -14.9 °C 1012.4 in /  34279.9 hPa NW 22.2 mph /  35.7 km/h 22.2 mph /  35.7 km/h 48 % 0.0 in /  0 mm 125.0 W/m2 CLR
13:15 16.1 °F /  -8.8 °C 5.1 °F /  -14.9 °C 1012.4 in /  34279.9 hPa WNW 18.5 mph /  29.8 km/h 18.5 mph /  29.8 km/h 48 % 0.0 in /  0 mm 105.0 W/m2 CLR
13:20 15.6 °F /  -9.1 °C 4.9 °F /  -15.1 °C 1012.4 in /  34279.9 hPa WNW 18.5 mph /  29.8 km/h 18.5 mph /  29.8 km/h 49 % 0.0 in /  0 mm 520.0 W/m2 CLR
13:21 15.6 °F /  -9.1 °C 4.9 °F /  -15.1 °C 1012.4 in /  34279.9 hPa NW 14.8 mph /  23.8 km/h 14.8 mph /  23.8 km/h 49 % 0.0 in /  0 mm 504.0 W/m2 CLR
13:26 16.1 °F /  -8.8 °C 5.1 °F /  -14.9 °C 1012.4 in /  34279.9 hPa WNW 16.7 mph /  26.9 km/h 16.7 mph /  26.9 km/h 48 % 0.0 in /  0 mm 478.0 W/m2 CLR
13:31 16.1 °F /  -8.8 °C 4.8 °F /  -15.1 °C 1012.1 in /  34269.7 hPa NW 27.8 mph /  44.7 km/h 27.8 mph /  44.7 km/h 47 % 0.0 in /  0 mm 529.0 W/m2 CLR
13:35 16.1 °F /  -8.8 °C 4.5 °F /  -15.3 °C 1012.1 in /  34269.7 hPa NNW 19.3 mph /  31.1 km/h 19.3 mph /  31.1 km/h 46 % 0.0 in /  0 mm 524.0 W/m2 CLR
13:36 16.1 °F /  -8.8 °C 4.5 °F /  -15.3 °C 1012.1 in /  34269.7 hPa WNW 18.5 mph /  29.8 km/h 18.5 mph /  29.8 km/h 46 % 0.0 in /  0 mm 545.0 W/m2 CLR
13:40 16.7 °F /  -8.5 °C 5.0 °F /  -15 °C 1012.1 in /  34269.7 hPa WNW 11.1 mph /  17.9 km/h 11.1 mph /  17.9 km/h 46 % 0.0 in /  0 mm 190.0 W/m2 CLR
13:45 16.7 °F /  -8.5 °C 5.3 °F /  -14.8 °C 1011.7 in /  34256.2 hPa WNW 16.7 mph /  26.9 km/h 16.7 mph /  26.9 km/h 47 % 0.0 in /  0 mm 503.0 W/m2 CLR
13:47 16.7 °F /  -8.5 °C 5.3 °F /  -14.8 °C 1011.7 in /  34256.2 hPa WNW 3.7 mph /  6 km/h 3.7 mph /  6 km/h 47 % 0.0 in /  0 mm 476.0 W/m2 CLR
13:52 16.7 °F /  -8.5 °C 5.0 °F /  -15 °C 1011.7 in /  34256.2 hPa NW 22.2 mph /  35.7 km/h 22.2 mph /  35.7 km/h 46 % 0.0 in /  0 mm 455.0 W/m2 CLR
13:54 16.7 °F /  -8.5 °C 5.0 °F /  -15 °C 1011.7 in /  34256.2 hPa NW 16.1 mph /  25.9 km/h 16.1 mph /  25.9 km/h 46 % 0.0 in /  0 mm 448.0 W/m2 CLR
13:59 16.7 °F /  -8.5 °C 5.0 °F /  -15 °C 1011.4 in /  34246 hPa WNW 16.7 mph /  26.9 km/h 16.7 mph /  26.9 km/h 46 % 0.0 in /  0 mm 452.0 W/m2 CLR
14:03 16.7 °F /  -8.5 °C 5.0 °F /  -15 °C 1011.4 in /  34246 hPa WNW 22.2 mph /  35.7 km/h 22.2 mph /  35.7 km/h 46 % 0.0 in /  0 mm 267.0 W/m2 CLR
14:08 16.1 °F /  -8.8 °C 4.8 °F /  -15.1 °C 1011.4 in /  34246 hPa NNW 3.7 mph /  6 km/h 3.7 mph /  6 km/h 47 % 0.0 in /  0 mm 144.0 W/m2 CLR
14:10 16.1 °F /  -8.8 °C 5.1 °F /  -14.9 °C 1011.4 in /  34246 hPa NW 12.9 mph /  20.8 km/h 12.9 mph /  20.8 km/h 48 % 0.0 in /  0 mm 461.0 W/m2 CLR
14:15 16.7 °F /  -8.5 °C 5.3 °F /  -14.8 °C 1011.1 in /  34235.8 hPa West 16.7 mph /  26.9 km/h 16.7 mph /  26.9 km/h 47 % 0.0 in /  0 mm 100.0 W/m2 CLR
14:17 16.1 °F /  -8.8 °C 4.8 °F /  -15.1 °C 1011.1 in /  34235.8 hPa WNW 18.5 mph /  29.8 km/h 18.5 mph /  29.8 km/h 47 % 0.0 in /  0 mm 127.0 W/m2 CLR
14:22 16.1 °F /  -8.8 °C 4.8 °F /  -15.1 °C 1011.1 in /  34235.8 hPa NW 16.7 mph /  26.9 km/h 16.7 mph /  26.9 km/h 47 % 0.0 in /  0 mm 135.0 W/m2 CLR
14:23 16.1 °F /  -8.8 °C 4.8 °F /  -15.1 °C 1011.1 in /  34235.8 hPa WNW 16.7 mph /  26.9 km/h 16.7 mph /  26.9 km/h 47 % 0.0 in /  0 mm 135.0 W/m2 CLR
14:28 16.1 °F /  -8.8 °C 4.8 °F /  -15.1 °C 1011.1 in /  34235.8 hPa WNW 25.9 mph /  41.7 km/h 25.9 mph /  41.7 km/h 47 % 0.0 in /  0 mm 144.0 W/m2 CLR
14:33 16.1 °F /  -8.8 °C 4.8 °F /  -15.1 °C 1011.1 in /  34235.8 hPa WNW 3.7 mph /  6 km/h 3.7 mph /  6 km/h 47 % 0.0 in /  0 mm 98.0 W/m2 CLR
14:36 15.6 °F /  -9.1 °C 4.3 °F /  -15.4 °C 1011.1 in /  34235.8 hPa WNW 11.1 mph /  17.9 km/h 11.1 mph /  17.9 km/h 47 % 0.0 in /  0 mm 88.0 W/m2 CLR
14:41 15.6 °F /  -9.1 °C 4.6 °F /  -15.2 °C 1010.7 in /  34222.3 hPa NW 14.5 mph /  23.3 km/h 14.5 mph /  23.3 km/h 48 % 0.0 in /  0 mm 74.0 W/m2 CLR
14:42 15.6 °F /  -9.1 °C 4.6 °F /  -15.2 °C 1010.7 in /  34222.3 hPa WNW 16.7 mph /  26.9 km/h 16.7 mph /  26.9 km/h 48 % 0.0 in /  0 mm 79.0 W/m2 CLR
14:43 15.6 °F /  -9.1 °C 4.6 °F /  -15.2 °C 1010.7 in /  34222.3 hPa NW 16.7 mph /  26.9 km/h 16.7 mph /  26.9 km/h 48 % 0.0 in /  0 mm 121.0 W/m2 FEW
14:48 15.6 °F /  -9.1 °C 4.6 °F /  -15.2 °C 1010.7 in /  34222.3 hPa NW 16.7 mph /  26.9 km/h 16.7 mph /  26.9 km/h 48 % 0.0 in /  0 mm 390.0 W/m2 CLR
14:53 16.1 °F /  -8.8 °C 4.8 °F /  -15.1 °C 1010.4 in /  34212.1 hPa NW 3.7 mph /  6 km/h 3.7 mph /  6 km/h 47 % 0.0 in /  0 mm 353.0 W/m2 CLR
14:56 16.1 °F /  -8.8 °C 4.8 °F /  -15.1 °C 1010.4 in /  34212.1 hPa NW 1.9 mph /  3.1 km/h 1.9 mph /  3.1 km/h 47 % 0.0 in /  0 mm 353.0 W/m2 CLR
15:01 16.7 °F /  -8.5 °C 5.0 °F /  -15 °C 1010.4 in /  34212.1 hPa WNW 3.7 mph /  6 km/h 3.7 mph /  6 km/h 46 % 0.0 in /  0 mm 345.0 W/m2 CLR
15:06 17.2 °F /  -8.2 °C 5.2 °F /  -14.9 °C 1010.0 in /  34198.6 hPa NW 18.5 mph /  29.8 km/h 18.5 mph /  29.8 km/h 45 % 0.0 in /  0 mm 336.0 W/m2 CLR
15:08 17.2 °F /  -8.2 °C 5.2 °F /  -14.9 °C 1010.4 in /  34212.1 hPa NW 14.8 mph /  23.8 km/h 14.8 mph /  23.8 km/h 45 % 0.0 in /  0 mm 339.0 W/m2 CLR
15:09 17.2 °F /  -8.2 °C 5.2 °F /  -14.9 °C 1010.4 in /  34212.1 hPa NW 16.7 mph /  26.9 km/h 16.7 mph /  26.9 km/h 45 % 0.0 in /  0 mm 334.0 W/m2 CLR
15:14 17.2 °F /  -8.2 °C 5.2 °F /  -14.9 °C 1010.0 in /  34198.6 hPa West 19.3 mph /  31.1 km/h 19.3 mph /  31.1 km/h 45 % 0.0 in /  0 mm 330.0 W/m2 CLR
15:15 17.2 °F /  -8.2 °C 5.2 °F /  -14.9 °C 1010.0 in /  34198.6 hPa West 18.5 mph /  29.8 km/h 18.5 mph /  29.8 km/h 45 % 0.0 in /  0 mm 334.0 W/m2 CLR
15:17 17.2 °F /  -8.2 °C 5.2 °F /  -14.9 °C 1010.0 in /  34198.6 hPa West 18.5 mph /  29.8 km/h 18.5 mph /  29.8 km/h 45 % 0.0 in /  0 mm 338.0 W/m2 CLR
15:22 17.2 °F /  -8.2 °C 4.8 °F /  -15.1 °C 1010.0 in /  34198.6 hPa WNW 1.9 mph /  3.1 km/h 1.9 mph /  3.1 km/h 44 % 0.0 in /  0 mm 316.0 W/m2 CLR
15:23 17.2 °F /  -8.2 °C 5.2 °F /  -14.9 °C 1010.0 in /  34198.6 hPa WNW 1.9 mph /  3.1 km/h 1.9 mph /  3.1 km/h 45 % 0.0 in /  0 mm 316.0 W/m2 CLR
15:28 17.2 °F /  -8.2 °C 4.8 °F /  -15.1 °C 1010.0 in /  34198.6 hPa North 1.9 mph /  3.1 km/h 1.9 mph /  3.1 km/h 44 % 0.0 in /  0 mm 311.0 W/m2 CLR
15:33 17.2 °F /  -8.2 °C 5.2 °F /  -14.9 °C 1010.0 in /  34198.6 hPa NE 14.8 mph /  23.8 km/h 14.8 mph /  23.8 km/h 45 % 0.0 in /  0 mm 292.0 W/m2 CLR
15:38 17.2 °F /  -8.2 °C 5.2 °F /  -14.9 °C 1010.0 in /  34198.6 hPa Calm     45 % 0.0 in /  0 mm 279.0 W/m2 CLR
15:39 17.2 °F /  -8.2 °C 5.2 °F /  -14.9 °C 1010.0 in /  34198.6 hPa Calm     45 % 0.0 in /  0 mm 279.0 W/m2 CLR
15:40 17.2 °F /  -8.2 °C 5.2 °F /  -14.9 °C 1010.0 in /  34198.6 hPa Calm     45 % 0.0 in /  0 mm 278.0 W/m2 CLR
15:45 17.2 °F /  -8.2 °C 4.8 °F /  -15.1 °C 1010.0 in /  34198.6 hPa NE 25.9 mph /  41.7 km/h 25.9 mph /  41.7 km/h 44 % 0.0 in /  0 mm 267.0 W/m2 CLR
15:50 17.2 °F /  -8.2 °C 4.8 °F /  -15.1 °C 1009.7 in /  34188.4 hPa North 18.5 mph /  29.8 km/h 18.5 mph /  29.8 km/h 44 % 0.0 in /  0 mm 250.0 W/m2 CLR
15:51 17.2 °F /  -8.2 °C 4.8 °F /  -15.1 °C 1009.7 in /  34188.4 hPa North 18.5 mph /  29.8 km/h 18.5 mph /  29.8 km/h 44 % 0.0 in /  0 mm 250.0 W/m2 CLR
15:56 17.2 °F /  -8.2 °C 5.2 °F /  -14.9 °C 1009.7 in /  34188.4 hPa NW 1.9 mph /  3.1 km/h 1.9 mph /  3.1 km/h 45 % 0.0 in /  0 mm 232.0 W/m2 CLR
16:01 17.2 °F /  -8.2 °C 4.8 °F /  -15.1 °C 1009.7 in /  34188.4 hPa Calm     44 % 0.0 in /  0 mm 225.0 W/m2 CLR
16:06 17.2 °F /  -8.2 °C 4.8 °F /  -15.1 °C 1009.7 in /  34188.4 hPa Calm     44 % 0.0 in /  0 mm 199.0 W/m2 CLR
16:11 16.7 °F /  -8.5 °C 4.3 °F /  -15.4 °C 1009.4 in /  34178.3 hPa Calm     44 % 0.0 in /  0 mm 183.0 W/m2 CLR
16:16 16.1 °F /  -8.8 °C 3.5 °F /  -15.8 °C 1009.4 in /  34178.3 hPa NE 5.6 mph /  9 km/h 5.6 mph /  9 km/h 43 % 0.0 in /  0 mm 169.0 W/m2 CLR
16:21 16.1 °F /  -8.8 °C 3.5 °F /  -15.8 °C 1009.4 in /  34178.3 hPa North 1.9 mph /  3.1 km/h 1.9 mph /  3.1 km/h 43 % 0.0 in /  0 mm 155.0 W/m2 CLR
16:26 15.6 °F /  -9.1 °C 3.0 °F /  -16.1 °C 1009.4 in /  34178.3 hPa Calm     43 % 0.0 in /  0 mm 141.0 W/m2 CLR
16:31 15.6 °F /  -9.1 °C 3.0 °F /  -16.1 °C 1009.4 in /  34178.3 hPa Calm     43 % 0.0 in /  0 mm 123.0 W/m2 CLR
16:36 15.0 °F /  -9.4 °C 3.2 °F /  -16 °C 1009.4 in /  34178.3 hPa ENE 1.9 mph /  3.1 km/h 1.9 mph /  3.1 km/h 45 % 0.0 in /  0 mm 111.0 W/m2 CLR
16:38 15.0 °F /  -9.4 °C 3.4 °F /  -15.9 °C 1009.4 in /  34178.3 hPa Calm     46 % 0.0 in /  0 mm 105.0 W/m2 CLR
16:43 15.0 °F /  -9.4 °C 3.4 °F /  -15.9 °C 1009.0 in /  34164.7 hPa Calm     46 % 0.0 in /  0 mm 91.0 W/m2 CLR
16:48 14.4 °F /  -9.8 °C 2.9 °F /  -16.2 °C 1009.0 in /  34164.7 hPa Calm     46 % 0.0 in /  0 mm 81.0 W/m2 FEW
16:50 14.4 °F /  -9.8 °C 2.9 °F /  -16.2 °C 1009.0 in /  34164.7 hPa Calm     46 % 0.0 in /  0 mm 76.0 W/m2 FEW
16:55 13.9 °F /  -10.1 °C 2.4 °F /  -16.4 °C 1009.4 in /  34178.3 hPa Calm     46 % 0.0 in /  0 mm 60.0 W/m2 SCT
16:56 13.9 °F /  -10.1 °C 2.4 °F /  -16.4 °C 1009.0 in /  34164.7 hPa Calm     46 % 0.0 in /  0 mm 60.0 W/m2 SCT
17:01 13.3 °F /  -10.4 °C 1.9 °F /  -16.7 °C 1009.0 in /  34164.7 hPa Calm     46 % 0.0 in /  0 mm 49.0 W/m2 SCT
17:06 12.8 °F /  -10.7 °C 1.4 °F /  -17 °C 1009.0 in /  34164.7 hPa Calm     46 % 0.0 in /  0 mm 35.0 W/m2 BKN
17:11 12.2 °F /  -11 °C 0.9 °F /  -17.3 °C 1009.0 in /  34164.7 hPa Calm     46 % 0.0 in /  0 mm 18.0 W/m2 BKN
17:12 12.2 °F /  -11 °C 0.9 °F /  -17.3 °C 1009.0 in /  34164.7 hPa Calm     46 % 0.0 in /  0 mm 18.0 W/m2 BKN
17:17 11.7 °F /  -11.3 °C 0.7 °F /  -17.4 °C 1009.0 in /  34164.7 hPa Calm     47 % 0.0 in /  0 mm 19.0 W/m2 BKN
17:22 11.7 °F /  -11.3 °C 0.7 °F /  -17.4 °C 1009.0 in /  34164.7 hPa Calm     47 % 0.0 in /  0 mm 16.0 W/m2 BKN
17:27 11.1 °F /  -11.6 °C 0.2 °F /  -17.7 °C 1009.0 in /  34164.7 hPa Calm     47 % 0.0 in /  0 mm 12.0 W/m2 BKN
17:29 11.1 °F /  -11.6 °C 0.5 °F /  -17.5 °C 1009.0 in /  34164.7 hPa Calm     48 % 0.0 in /  0 mm 12.0 W/m2 BKN
17:34 10.6 °F /  -11.9 °C 0.0 °F /  -17.8 °C 1009.0 in /  34164.7 hPa Calm     48 % 0.0 in /  0 mm 11.0 W/m2 BKN
17:36 10.6 °F /  -11.9 °C 0.0 °F /  -17.8 °C 1009.0 in /  34164.7 hPa Calm     48 % 0.0 in /  0 mm 9.0 W/m2 BKN
17:41 10.6 °F /  -11.9 °C 0.3 °F /  -17.6 °C 1009.0 in /  34164.7 hPa Calm     49 % 0.0 in /  0 mm 7.0 W/m2 BKN
17:46 10.0 °F /  -12.2 °C -0.2 °F /  -17.9 °C 1009.0 in /  34164.7 hPa Calm     49 % 0.0 in /  0 mm 5.0 W/m2 OVC
17:51 10.0 °F /  -12.2 °C 0.1 °F /  -17.7 °C 1009.0 in /  34164.7 hPa Calm     50 % 0.0 in /  0 mm 0.0 W/m2 OVC
17:52 10.0 °F /  -12.2 °C 0.1 °F /  -17.7 °C 1009.0 in /  34164.7 hPa Calm     50 % 0.0 in /  0 mm 0.0 W/m2 OVC
17:57 10.0 °F /  -12.2 °C 0.1 °F /  -17.7 °C 1009.0 in /  34164.7 hPa Calm     50 % 0.0 in /  0 mm 0.0 W/m2 CLR
18:01 10.0 °F /  -12.2 °C 0.3 °F /  -17.6 °C 1009.0 in /  34164.7 hPa Calm     51 % 0.0 in /  0 mm 0.0 W/m2 CLR
18:06 10.0 °F /  -12.2 °C 0.6 °F /  -17.4 °C 1009.0 in /  34164.7 hPa Calm     52 % 0.0 in /  0 mm 0.0 W/m2 CLR
18:11 10.0 °F /  -12.2 °C 0.8 °F /  -17.3 °C 1009.0 in /  34164.7 hPa Calm     53 % 0.0 in /  0 mm 0.0 W/m2 CLR
18:12 10.0 °F /  -12.2 °C 1.1 °F /  -17.2 °C 1009.0 in /  34164.7 hPa Calm     54 % 0.0 in /  0 mm 0.0 W/m2 CLR
18:16 10.0 °F /  -12.2 °C 1.4 °F /  -17 °C 1009.0 in /  34164.7 hPa Calm     55 % 0.0 in /  0 mm 0.0 W/m2 CLR
18:21 9.4 °F /  -12.6 °C 1.3 °F /  -17.1 °C 1009.0 in /  34164.7 hPa Calm     57 % 0.0 in /  0 mm 0.0 W/m2 CLR
18:22 9.4 °F /  -12.6 °C 1.3 °F /  -17.1 °C 1009.0 in /  34164.7 hPa Calm     57 % 0.0 in /  0 mm 0.0 W/m2 CLR
18:27 9.4 °F /  -12.6 °C 1.3 °F /  -17.1 °C 1009.0 in /  34164.7 hPa Calm     57 % 0.0 in /  0 mm 0.0 W/m2 CLR
18:32 8.9 °F /  -12.8 °C 1.1 °F /  -17.2 °C 1009.0 in /  34164.7 hPa Calm     58 % 0.0 in /  0 mm 0.0 W/m2 CLR
18:36 8.3 °F /  -13.2 °C 0.8 °F /  -17.3 °C 1009.0 in /  34164.7 hPa Calm     59 % 0.0 in /  0 mm 0.0 W/m2 CLR
18:38 8.3 °F /  -13.2 °C 1.0 °F /  -17.2 °C 1009.0 in /  34164.7 hPa Calm     60 % 0.0 in /  0 mm 0.0 W/m2 CLR
18:43 8.3 °F /  -13.2 °C 1.0 °F /  -17.2 °C 1009.0 in /  34164.7 hPa Calm     60 % 0.0 in /  0 mm 0.0 W/m2 CLR
18:46 8.3 °F /  -13.2 °C 1.0 °F /  -17.2 °C 1009.0 in /  34164.7 hPa Calm     60 % 0.0 in /  0 mm 0.0 W/m2 CLR
18:51 7.8 °F /  -13.4 °C 0.5 °F /  -17.5 °C 1009.0 in /  34164.7 hPa Calm     60 % 0.0 in /  0 mm 0.0 W/m2 CLR
18:53 7.8 °F /  -13.4 °C 0.7 °F /  -17.4 °C 1009.0 in /  34164.7 hPa Calm     61 % 0.0 in /  0 mm 0.0 W/m2 CLR
18:58 7.2 °F /  -13.8 °C 0.7 °F /  -17.4 °C 1009.0 in /  34164.7 hPa Calm     63 % 0.0 in /  0 mm 0.0 W/m2 CLR
19:00 7.2 °F /  -13.8 °C 0.7 °F /  -17.4 °C 1009.0 in /  34164.7 hPa Calm     63 % 0.0 in /  0 mm 0.0 W/m2 CLR
19:05 6.7 °F /  -14.1 °C 0.3 °F /  -17.6 °C 1009.0 in /  34164.7 hPa Calm     64 % 0.0 in /  0 mm 0.0 W/m2 CLR
19:12 6.1 °F /  -14.4 °C -0.2 °F /  -17.9 °C 1009.0 in /  34164.7 hPa Calm     64 % 0.0 in /  0 mm 0.0 W/m2 CLR
19:13 6.1 °F /  -14.4 °C -0.2 °F /  -17.9 °C 1009.0 in /  34164.7 hPa Calm     64 % 0.0 in /  0 mm 0.0 W/m2 CLR
19:16 6.1 °F /  -14.4 °C 0.0 °F /  -17.8 °C 1009.0 in /  34164.7 hPa Calm     65 % 0.0 in /  0 mm 0.0 W/m2 CLR
19:21 6.7 °F /  -14.1 °C 0.6 °F /  -17.4 °C 1009.0 in /  34164.7 hPa Calm     65 % 0.0 in /  0 mm 0.0 W/m2 CLR
19:23 6.7 °F /  -14.1 °C 0.6 °F /  -17.4 °C 1009.0 in /  34164.7 hPa Calm     65 % 0.0 in /  0 mm 0.0 W/m2 CLR
19:28 6.7 °F /  -14.1 °C 0.6 °F /  -17.4 °C 1009.0 in /  34164.7 hPa Calm     65 % 0.0 in /  0 mm 0.0 W/m2 CLR
19:32 6.1 °F /  -14.4 °C 0.2 °F /  -17.7 °C 1009.4 in /  34178.3 hPa Calm     66 % 0.0 in /  0 mm 0.0 W/m2 CLR
19:37 6.1 °F /  -14.4 °C 0.2 °F /  -17.7 °C 1009.0 in /  34164.7 hPa Calm     66 % 0.0 in /  0 mm 0.0 W/m2 CLR
19:40 6.1 °F /  -14.4 °C 0.4 °F /  -17.6 °C 1009.0 in /  34164.7 hPa Calm     67 % 0.0 in /  0 mm 0.0 W/m2 CLR
19:45 6.7 °F /  -14.1 °C 0.9 °F /  -17.3 °C 1009.0 in /  34164.7 hPa Calm     67 % 0.0 in /  0 mm 0.0 W/m2 CLR
19:50 6.7 °F /  -14.1 °C 0.8 °F /  -17.3 °C 1009.0 in /  34164.7 hPa Calm     66 % 0.0 in /  0 mm 0.0 W/m2 CLR
19:55 6.1 °F /  -14.4 °C 0.4 °F /  -17.6 °C 1009.4 in /  34178.3 hPa Calm     67 % 0.0 in /  0 mm 0.0 W/m2 CLR
19:58 6.1 °F /  -14.4 °C 0.4 °F /  -17.6 °C 1009.0 in /  34164.7 hPa Calm     67 % 0.0 in /  0 mm 0.0 W/m2 CLR
20:03 5.6 °F /  -14.7 °C -0.1 °F /  -17.8 °C 1009.4 in /  34178.3 hPa Calm     67 % 0.0 in /  0 mm 0.0 W/m2 CLR
20:08 5.0 °F /  -15 °C -0.6 °F /  -18.1 °C 1009.0 in /  34164.7 hPa Calm     67 % 0.0 in /  0 mm 0.0 W/m2 CLR
20:13 5.0 °F /  -15 °C -0.4 °F /  -18 °C 1009.0 in /  34164.7 hPa Calm     68 % 0.0 in /  0 mm 0.0 W/m2 CLR
20:16 5.0 °F /  -15 °C -0.2 °F /  -17.9 °C 1009.0 in /  34164.7 hPa Calm     69 % 0.0 in /  0 mm 0.0 W/m2 CLR
20:22 4.4 °F /  -15.3 °C -0.8 °F /  -18.2 °C 1009.4 in /  34178.3 hPa Calm     69 % 0.0 in /  0 mm 0.0 W/m2 CLR
20:27 4.4 °F /  -15.3 °C -0.9 °F /  -18.3 °C 1009.4 in /  34178.3 hPa Calm     68 % 0.0 in /  0 mm 0.0 W/m2 CLR
20:28 4.4 °F /  -15.3 °C -0.8 °F /  -18.2 °C 1009.0 in /  34164.7 hPa Calm     69 % 0.0 in /  0 mm 0.0 W/m2 CLR
20:33 4.4 °F /  -15.3 °C -0.9 °F /  -18.3 °C 1009.0 in /  34164.7 hPa Calm     68 % 0.0 in /  0 mm 0.0 W/m2 CLR
20:35 4.4 °F /  -15.3 °C -0.8 °F /  -18.2 °C 1009.0 in /  34164.7 hPa Calm     69 % 0.0 in /  0 mm 0.0 W/m2 CLR
20:40 5.0 °F /  -15 °C -0.2 °F /  -17.9 °C 1009.0 in /  34164.7 hPa Calm     69 % 0.0 in /  0 mm 0.0 W/m2 CLR
20:42 5.0 °F /  -15 °C -0.2 °F /  -17.9 °C 1009.0 in /  34164.7 hPa Calm     69 % 0.0 in /  0 mm 0.0 W/m2 CLR
20:47 5.0 °F /  -15 °C 0.0 °F /  -17.8 °C 1009.0 in /  34164.7 hPa Calm     70 % 0.0 in /  0 mm 0.0 W/m2 CLR
20:50 5.0 °F /  -15 °C 0.2 °F /  -17.7 °C 1009.0 in /  34164.7 hPa Calm     71 % 0.0 in /  0 mm 0.0 W/m2 CLR
20:55 5.0 °F /  -15 °C 0.0 °F /  -17.8 °C 1008.7 in /  34154.6 hPa Calm     70 % 0.0 in /  0 mm 0.0 W/m2 CLR
20:59 5.0 °F /  -15 °C 0.0 °F /  -17.8 °C 1008.7 in /  34154.6 hPa Calm     70 % 0.0 in /  0 mm 0.0 W/m2 CLR
21:02 4.4 °F /  -15.3 °C -0.3 °F /  -17.9 °C 1009.0 in /  34164.7 hPa Calm     71 % 0.0 in /  0 mm 0.0 W/m2 CLR
21:07 4.4 °F /  -15.3 °C -0.3 °F /  -17.9 °C 1008.7 in /  34154.6 hPa Calm     71 % 0.0 in /  0 mm 0.0 W/m2 CLR
21:09 3.9 °F /  -15.6 °C -0.9 °F /  -18.3 °C 1008.7 in /  34154.6 hPa Calm     71 % 0.0 in /  0 mm 0.0 W/m2 CLR
21:10 3.9 °F /  -15.6 °C -0.9 °F /  -18.3 °C 1008.7 in /  34154.6 hPa Calm     71 % 0.0 in /  0 mm 0.0 W/m2 CLR
21:16 3.9 °F /  -15.6 °C -0.9 °F /  -18.3 °C 1008.7 in /  34154.6 hPa Calm     71 % 0.0 in /  0 mm 0.0 W/m2 CLR
21:19 3.9 °F /  -15.6 °C -0.7 °F /  -18.2 °C 1008.7 in /  34154.6 hPa Calm     72 % 0.0 in /  0 mm 0.0 W/m2 CLR
21:24 3.3 °F /  -15.9 °C -1.2 °F /  -18.4 °C 1008.7 in /  34154.6 hPa Calm     72 % 0.0 in /  0 mm 0.0 W/m2 CLR
21:25 3.3 °F /  -15.9 °C -1.2 °F /  -18.4 °C 1008.7 in /  34154.6 hPa Calm     72 % 0.0 in /  0 mm 0.0 W/m2 CLR
21:30 3.3 °F /  -15.9 °C -1.2 °F /  -18.4 °C 1008.7 in /  34154.6 hPa Calm     72 % 0.0 in /  0 mm 0.0 W/m2 CLR
21:32 2.8 °F /  -16.2 °C -1.8 °F /  -18.8 °C 1008.7 in /  34154.6 hPa Calm     72 % 0.0 in /  0 mm 0.0 W/m2 CLR
21:35 2.8 °F /  -16.2 °C -1.8 °F /  -18.8 °C 1008.7 in /  34154.6 hPa Calm     72 % 0.0 in /  0 mm 0.0 W/m2 CLR
21:40 2.8 °F /  -16.2 °C -1.8 °F /  -18.8 °C 1008.7 in /  34154.6 hPa Calm     72 % 0.0 in /  0 mm 0.0 W/m2 CLR
21:42 2.8 °F /  -16.2 °C -1.8 °F /  -18.8 °C 1008.7 in /  34154.6 hPa Calm     72 % 0.0 in /  0 mm 0.0 W/m2 CLR
21:47 2.8 °F /  -16.2 °C -1.6 °F /  -18.7 °C 1008.7 in /  34154.6 hPa Calm     73 % 0.0 in /  0 mm 0.0 W/m2 CLR
21:48 3.3 °F /  -15.9 °C -1.1 °F /  -18.4 °C 1008.7 in /  34154.6 hPa Calm     73 % 0.0 in /  0 mm 0.0 W/m2 CLR
21:53 3.3 °F /  -15.9 °C -1.1 °F /  -18.4 °C 1008.7 in /  34154.6 hPa Calm     73 % 0.0 in /  0 mm 0.0 W/m2 CLR
21:55 3.3 °F /  -15.9 °C -1.1 °F /  -18.4 °C 1008.7 in /  34154.6 hPa Calm     73 % 0.0 in /  0 mm 0.0 W/m2 CLR
21:57 3.3 °F /  -15.9 °C -0.9 °F /  -18.3 °C 1008.7 in /  34154.6 hPa Calm     74 % 0.0 in /  0 mm 0.0 W/m2 CLR
22:00 3.3 °F /  -15.9 °C -0.7 °F /  -18.2 °C 1008.7 in /  34154.6 hPa Calm     75 % 0.0 in /  0 mm 0.0 W/m2 CLR
22:05 3.3 °F /  -15.9 °C -0.5 °F /  -18.1 °C 1008.7 in /  34154.6 hPa Calm     76 % 0.0 in /  0 mm 0.0 W/m2 CLR
22:07 3.3 °F /  -15.9 °C -0.7 °F /  -18.2 °C 1008.7 in /  34154.6 hPa Calm     75 % 0.0 in /  0 mm 0.0 W/m2 CLR
22:11 2.8 °F /  -16.2 °C -1.1 °F /  -18.4 °C 1008.7 in /  34154.6 hPa Calm     76 % 0.0 in /  0 mm 0.0 W/m2 CLR
22:16 2.8 °F /  -16.2 °C -0.8 °F /  -18.2 °C 1008.7 in /  34154.6 hPa Calm     77 % 0.0 in /  0 mm 0.0 W/m2 CLR
22:21 2.8 °F /  -16.2 °C -0.8 °F /  -18.2 °C 1008.7 in /  34154.6 hPa Calm     77 % 0.0 in /  0 mm 0.0 W/m2 CLR
22:22 2.8 °F /  -16.2 °C -0.8 °F /  -18.2 °C 1008.7 in /  34154.6 hPa Calm     77 % 0.0 in /  0 mm 0.0 W/m2 CLR
22:27 2.8 °F /  -16.2 °C -1.1 °F /  -18.4 °C 1008.7 in /  34154.6 hPa Calm     76 % 0.0 in /  0 mm 0.0 W/m2 CLR
22:30 2.8 °F /  -16.2 °C -0.8 °F /  -18.2 °C 1008.7 in /  34154.6 hPa Calm     77 % 0.0 in /  0 mm 0.0 W/m2 CLR
22:32 2.8 °F /  -16.2 °C -0.8 °F /  -18.2 °C 1008.7 in /  34154.6 hPa Calm     77 % 0.0 in /  0 mm 0.0 W/m2 CLR
22:37 2.8 °F /  -16.2 °C -1.1 °F /  -18.4 °C 1008.7 in /  34154.6 hPa Calm     76 % 0.0 in /  0 mm 0.0 W/m2 CLR
22:40 2.8 °F /  -16.2 °C -1.2 °F /  -18.4 °C 1008.4 in /  34144.4 hPa Calm     75 % 0.0 in /  0 mm 0.0 W/m2 CLR
22:45 2.2 °F /  -16.6 °C -1.6 °F /  -18.7 °C 1008.7 in /  34154.6 hPa Calm     76 % 0.0 in /  0 mm 0.0 W/m2 CLR
22:48 2.2 °F /  -16.6 °C -1.4 °F /  -18.6 °C 1008.4 in /  34144.4 hPa Calm     77 % 0.0 in /  0 mm 0.0 W/m2 CLR
22:51 2.2 °F /  -16.6 °C -1.4 °F /  -18.6 °C 1008.7 in /  34154.6 hPa Calm     77 % 0.0 in /  0 mm 0.0 W/m2 CLR
22:54 2.2 °F /  -16.6 °C -1.6 °F /  -18.7 °C 1008.7 in /  34154.6 hPa Calm     76 % 0.0 in /  0 mm 0.0 W/m2 CLR
22:59 2.2 °F /  -16.6 °C -1.6 °F /  -18.7 °C 1008.4 in /  34144.4 hPa Calm     76 % 0.0 in /  0 mm 0.0 W/m2 CLR
23:00 2.2 °F /  -16.6 °C -1.6 °F /  -18.7 °C 1008.4 in /  34144.4 hPa Calm     76 % 0.0 in /  0 mm 0.0 W/m2 CLR
23:05 2.2 °F /  -16.6 °C -1.4 °F /  -18.6 °C 1008.4 in /  34144.4 hPa Calm     77 % 0.0 in /  0 mm 0.0 W/m2 CLR
23:06 2.2 °F /  -16.6 °C -1.4 °F /  -18.6 °C 1008.4 in /  34144.4 hPa Calm     77 % 0.0 in /  0 mm 0.0 W/m2 CLR
23:11 2.2 °F /  -16.6 °C -1.2 °F /  -18.4 °C 1008.4 in /  34144.4 hPa Calm     78 % 0.0 in /  0 mm 0.0 W/m2 CLR
23:17 2.8 °F /  -16.2 °C -0.7 °F /  -18.2 °C 1008.4 in /  34144.4 hPa Calm     78 % 0.0 in /  0 mm 0.0 W/m2 CLR
23:19 2.8 °F /  -16.2 °C -0.7 °F /  -18.2 °C 1008.4 in /  34144.4 hPa Calm     78 % 0.0 in /  0 mm 0.0 W/m2 CLR
23:24 2.8 °F /  -16.2 °C -0.5 °F /  -18.1 °C 1008.4 in /  34144.4 hPa Calm     79 % 0.0 in /  0 mm 0.0 W/m2 CLR
23:27 2.8 °F /  -16.2 °C -0.5 °F /  -18.1 °C 1008.0 in /  34130.9 hPa Calm     79 % 0.0 in /  0 mm 0.0 W/m2 CLR
23:29 2.8 °F /  -16.2 °C -0.5 °F /  -18.1 °C 1008.0 in /  34130.9 hPa Calm     79 % 0.0 in /  0 mm 0.0 W/m2 CLR
23:32 2.8 °F /  -16.2 °C -0.5 °F /  -18.1 °C 1008.0 in /  34130.9 hPa Calm     79 % 0.0 in /  0 mm 0.0 W/m2 CLR
23:36 2.8 °F /  -16.2 °C -0.5 °F /  -18.1 °C 1008.4 in /  34144.4 hPa Calm     79 % 0.0 in /  0 mm 0.0 W/m2 CLR
23:41 2.8 °F /  -16.2 °C -0.5 °F /  -18.1 °C 1008.4 in /  34144.4 hPa Calm     79 % 0.0 in /  0 mm 0.0 W/m2 CLR
23:46 2.2 °F /  -16.6 °C -1.1 °F /  -18.4 °C 1008.4 in /  34144.4 hPa Calm     79 % 0.0 in /  0 mm 0.0 W/m2 CLR
23:48 2.2 °F /  -16.6 °C -0.9 °F /  -18.3 °C 1008.4 in /  34144.4 hPa Calm     80 % 0.0 in /  0 mm 0.0 W/m2 CLR
23:53 2.2 °F /  -16.6 °C -0.9 °F /  -18.3 °C 1008.0 in /  34130.9 hPa Calm     80 % 0.0 in /  0 mm 0.0 W/m2 CLR
23:59 2.2 °F /  -16.6 °C -0.9 °F /  -18.3 °C 1008.0 in /  34130.9 hPa Calm     80 % 0.0 in /  0 mm 0.0 W/m2 CLR
Lo Temps de Massalio
Compliments of Weather Underground - 1.5 mb